sensor_id;sensor_type;location;lat;lon;timestamp;P1;durP1;ratioP1;P2;durP2;ratioP2
3924;SDS011;1977;52.274;10.518;2023-06-10T00:00:48;5.07;;;4.60;;
3924;SDS011;1977;52.274;10.518;2023-06-10T00:03:15;5.63;;;5.00;;
3924;SDS011;1977;52.274;10.518;2023-06-10T00:05:44;4.50;;;4.20;;
3924;SDS011;1977;52.274;10.518;2023-06-10T00:08:11;4.57;;;4.27;;
3924;SDS011;1977;52.274;10.518;2023-06-10T00:10:40;5.37;;;4.77;;
3924;SDS011;1977;52.274;10.518;2023-06-10T00:13:07;4.73;;;4.37;;
3924;SDS011;1977;52.274;10.518;2023-06-10T00:15:35;5.73;;;4.37;;
3924;SDS011;1977;52.274;10.518;2023-06-10T00:18:01;4.97;;;4.27;;
3924;SDS011;1977;52.274;10.518;2023-06-10T00:20:28;5.67;;;4.73;;
3924;SDS011;1977;52.274;10.518;2023-06-10T00:22:57;5.30;;;4.80;;
3924;SDS011;1977;52.274;10.518;2023-06-10T00:25:26;4.80;;;4.30;;
3924;SDS011;1977;52.274;10.518;2023-06-10T00:27:53;5.43;;;4.90;;
3924;SDS011;1977;52.274;10.518;2023-06-10T00:30:20;5.20;;;4.70;;
3924;SDS011;1977;52.274;10.518;2023-06-10T00:32:46;5.00;;;4.60;;
3924;SDS011;1977;52.274;10.518;2023-06-10T00:35:13;5.40;;;5.00;;
3924;SDS011;1977;52.274;10.518;2023-06-10T00:37:40;5.90;;;5.37;;
3924;SDS011;1977;52.274;10.518;2023-06-10T00:40:09;5.90;;;5.30;;
3924;SDS011;1977;52.274;10.518;2023-06-10T00:42:37;4.97;;;4.57;;
3924;SDS011;1977;52.274;10.518;2023-06-10T00:45:04;4.90;;;4.50;;
3924;SDS011;1977;52.274;10.518;2023-06-10T00:47:32;8.63;;;5.30;;
3924;SDS011;1977;52.274;10.518;2023-06-10T00:50:00;5.93;;;5.30;;
3924;SDS011;1977;52.274;10.518;2023-06-10T00:52:28;8.07;;;5.67;;
3924;SDS011;1977;52.274;10.518;2023-06-10T00:54:55;5.00;;;4.60;;
3924;SDS011;1977;52.274;10.518;2023-06-10T00:57:25;5.97;;;5.00;;
3924;SDS011;1977;52.274;10.518;2023-06-10T00:59:52;6.10;;;5.30;;
3924;SDS011;1977;52.274;10.518;2023-06-10T01:02:20;7.07;;;5.13;;
3924;SDS011;1977;52.274;10.518;2023-06-10T01:04:47;7.10;;;6.43;;
3924;SDS011;1977;52.274;10.518;2023-06-10T01:07:14;8.60;;;5.03;;
3924;SDS011;1977;52.274;10.518;2023-06-10T01:09:49;6.10;;;5.60;;
3924;SDS011;1977;52.274;10.518;2023-06-10T01:12:24;6.10;;;5.50;;
3924;SDS011;1977;52.274;10.518;2023-06-10T01:14:57;6.27;;;5.70;;
3924;SDS011;1977;52.274;10.518;2023-06-10T01:17:25;7.80;;;5.90;;
3924;SDS011;1977;52.274;10.518;2023-06-10T01:19:53;6.60;;;6.00;;
3924;SDS011;1977;52.274;10.518;2023-06-10T01:22:23;8.40;;;4.90;;
3924;SDS011;1977;52.274;10.518;2023-06-10T01:24:51;6.90;;;5.60;;
3924;SDS011;1977;52.274;10.518;2023-06-10T01:27:19;6.30;;;5.70;;
3924;SDS011;1977;52.274;10.518;2023-06-10T01:29:50;7.20;;;6.33;;
3924;SDS011;1977;52.274;10.518;2023-06-10T01:32:22;6.40;;;5.73;;
3924;SDS011;1977;52.274;10.518;2023-06-10T01:34:59;5.70;;;5.30;;
3924;SDS011;1977;52.274;10.518;2023-06-10T01:37:30;6.57;;;5.50;;
3924;SDS011;1977;52.274;10.518;2023-06-10T01:39:57;6.57;;;6.00;;
3924;SDS011;1977;52.274;10.518;2023-06-10T01:42:26;6.37;;;5.87;;
3924;SDS011;1977;52.274;10.518;2023-06-10T01:44:54;6.70;;;6.20;;
3924;SDS011;1977;52.274;10.518;2023-06-10T01:47:21;6.40;;;5.90;;
3924;SDS011;1977;52.274;10.518;2023-06-10T01:49:48;7.30;;;5.67;;
3924;SDS011;1977;52.274;10.518;2023-06-10T01:52:14;7.83;;;6.00;;
3924;SDS011;1977;52.274;10.518;2023-06-10T01:54:43;6.00;;;5.60;;
3924;SDS011;1977;52.274;10.518;2023-06-10T01:57:10;6.43;;;5.40;;
3924;SDS011;1977;52.274;10.518;2023-06-10T01:59:36;7.17;;;6.00;;
3924;SDS011;1977;52.274;10.518;2023-06-10T02:02:04;7.13;;;5.97;;
3924;SDS011;1977;52.274;10.518;2023-06-10T02:04:31;5.97;;;5.50;;
3924;SDS011;1977;52.274;10.518;2023-06-10T02:06:58;6.00;;;5.50;;
3924;SDS011;1977;52.274;10.518;2023-06-10T02:09:29;8.00;;;7.30;;
3924;SDS011;1977;52.274;10.518;2023-06-10T02:11:57;10.63;;;6.37;;
3924;SDS011;1977;52.274;10.518;2023-06-10T02:14:24;7.00;;;6.30;;
3924;SDS011;1977;52.274;10.518;2023-06-10T02:16:51;6.40;;;5.90;;
3924;SDS011;1977;52.274;10.518;2023-06-10T02:19:21;10.87;;;7.50;;
3924;SDS011;1977;52.274;10.518;2023-06-10T02:21:48;6.90;;;6.33;;
3924;SDS011;1977;52.274;10.518;2023-06-10T02:24:15;7.43;;;5.70;;
3924;SDS011;1977;52.274;10.518;2023-06-10T02:26:42;8.93;;;6.20;;
3924;SDS011;1977;52.274;10.518;2023-06-10T02:29:11;5.93;;;5.37;;
3924;SDS011;1977;52.274;10.518;2023-06-10T02:31:38;8.23;;;6.63;;
3924;SDS011;1977;52.274;10.518;2023-06-10T02:34:06;8.27;;;6.70;;
3924;SDS011;1977;52.274;10.518;2023-06-10T02:36:32;10.63;;;6.60;;
3924;SDS011;1977;52.274;10.518;2023-06-10T02:39:00;7.50;;;6.60;;
3924;SDS011;1977;52.274;10.518;2023-06-10T02:41:28;7.10;;;6.60;;
3924;SDS011;1977;52.274;10.518;2023-06-10T02:43:55;9.60;;;6.80;;
3924;SDS011;1977;52.274;10.518;2023-06-10T02:46:23;6.50;;;6.00;;
3924;SDS011;1977;52.274;10.518;2023-06-10T02:48:49;7.93;;;6.30;;
3924;SDS011;1977;52.274;10.518;2023-06-10T02:51:17;8.97;;;6.10;;
3924;SDS011;1977;52.274;10.518;2023-06-10T02:53:45;7.00;;;6.50;;
3924;SDS011;1977;52.274;10.518;2023-06-10T02:56:13;7.87;;;6.40;;
3924;SDS011;1977;52.274;10.518;2023-06-10T02:58:42;6.63;;;6.03;;
3924;SDS011;1977;52.274;10.518;2023-06-10T03:01:08;7.93;;;5.97;;
3924;SDS011;1977;52.274;10.518;2023-06-10T03:03:37;6.53;;;5.93;;
3924;SDS011;1977;52.274;10.518;2023-06-10T03:06:07;7.70;;;6.90;;
3924;SDS011;1977;52.274;10.518;2023-06-10T03:08:35;7.87;;;6.20;;
3924;SDS011;1977;52.274;10.518;2023-06-10T03:11:02;7.23;;;6.53;;
3924;SDS011;1977;52.274;10.518;2023-06-10T03:13:28;8.90;;;7.17;;
3924;SDS011;1977;52.274;10.518;2023-06-10T03:15:55;7.87;;;7.03;;
3924;SDS011;1977;52.274;10.518;2023-06-10T03:18:26;9.90;;;7.33;;
3924;SDS011;1977;52.274;10.518;2023-06-10T03:20:55;8.10;;;6.40;;
3924;SDS011;1977;52.274;10.518;2023-06-10T03:23:22;7.57;;;6.80;;
3924;SDS011;1977;52.274;10.518;2023-06-10T03:25:49;10.17;;;6.10;;
3924;SDS011;1977;52.274;10.518;2023-06-10T03:28:16;7.87;;;7.17;;
3924;SDS011;1977;52.274;10.518;2023-06-10T03:30:43;7.90;;;6.37;;
3924;SDS011;1977;52.274;10.518;2023-06-10T03:33:09;8.70;;;6.53;;
3924;SDS011;1977;52.274;10.518;2023-06-10T03:35:36;9.17;;;7.40;;
3924;SDS011;1977;52.274;10.518;2023-06-10T03:38:04;6.73;;;6.03;;
3924;SDS011;1977;52.274;10.518;2023-06-10T03:40:31;7.77;;;7.07;;
3924;SDS011;1977;52.274;10.518;2023-06-10T03:42:59;8.17;;;7.43;;
3924;SDS011;1977;52.274;10.518;2023-06-10T03:45:26;6.93;;;6.33;;
3924;SDS011;1977;52.274;10.518;2023-06-10T03:47:54;7.90;;;6.40;;
3924;SDS011;1977;52.274;10.518;2023-06-10T03:50:22;8.77;;;7.40;;
3924;SDS011;1977;52.274;10.518;2023-06-10T03:52:49;8.33;;;7.50;;
3924;SDS011;1977;52.274;10.518;2023-06-10T03:55:18;7.37;;;6.67;;
3924;SDS011;1977;52.274;10.518;2023-06-10T03:57:46;7.87;;;7.07;;
3924;SDS011;1977;52.274;10.518;2023-06-10T04:00:14;7.37;;;6.77;;
3924;SDS011;1977;52.274;10.518;2023-06-10T04:02:42;7.50;;;6.80;;
3924;SDS011;1977;52.274;10.518;2023-06-10T04:05:13;9.60;;;7.30;;
3924;SDS011;1977;52.274;10.518;2023-06-10T04:07:41;8.83;;;6.73;;
3924;SDS011;1977;52.274;10.518;2023-06-10T04:10:09;8.17;;;7.23;;
3924;SDS011;1977;52.274;10.518;2023-06-10T04:12:38;20.03;;;8.43;;
3924;SDS011;1977;52.274;10.518;2023-06-10T04:15:06;9.33;;;7.33;;
3924;SDS011;1977;52.274;10.518;2023-06-10T04:17:33;7.80;;;7.00;;
3924;SDS011;1977;52.274;10.518;2023-06-10T04:20:00;8.10;;;7.30;;
3924;SDS011;1977;52.274;10.518;2023-06-10T04:22:27;6.83;;;6.30;;
3924;SDS011;1977;52.274;10.518;2023-06-10T04:24:54;7.23;;;6.63;;
3924;SDS011;1977;52.274;10.518;2023-06-10T04:27:21;8.83;;;7.93;;
3924;SDS011;1977;52.274;10.518;2023-06-10T04:29:49;9.50;;;7.00;;
3924;SDS011;1977;52.274;10.518;2023-06-10T04:32:17;8.87;;;7.37;;
3924;SDS011;1977;52.274;10.518;2023-06-10T04:34:44;9.30;;;7.77;;
3924;SDS011;1977;52.274;10.518;2023-06-10T04:37:11;7.60;;;7.00;;
3924;SDS011;1977;52.274;10.518;2023-06-10T04:39:37;7.67;;;6.20;;
3924;SDS011;1977;52.274;10.518;2023-06-10T04:42:04;8.20;;;7.23;;
3924;SDS011;1977;52.274;10.518;2023-06-10T04:44:31;7.37;;;6.67;;
3924;SDS011;1977;52.274;10.518;2023-06-10T04:47:00;7.47;;;6.63;;
3924;SDS011;1977;52.274;10.518;2023-06-10T04:49:27;8.73;;;7.93;;
3924;SDS011;1977;52.274;10.518;2023-06-10T04:51:54;7.23;;;6.40;;
3924;SDS011;1977;52.274;10.518;2023-06-10T04:54:21;8.63;;;7.73;;
3924;SDS011;1977;52.274;10.518;2023-06-10T04:56:48;8.97;;;7.00;;
3924;SDS011;1977;52.274;10.518;2023-06-10T04:59:15;9.10;;;6.33;;
3924;SDS011;1977;52.274;10.518;2023-06-10T05:01:42;9.33;;;7.17;;
3924;SDS011;1977;52.274;10.518;2023-06-10T05:04:10;9.03;;;6.50;;
3924;SDS011;1977;52.274;10.518;2023-06-10T05:06:37;10.60;;;6.80;;
3924;SDS011;1977;52.274;10.518;2023-06-10T05:09:05;7.10;;;5.80;;
3924;SDS011;1977;52.274;10.518;2023-06-10T05:11:31;8.23;;;7.37;;
3924;SDS011;1977;52.274;10.518;2023-06-10T05:13:58;9.00;;;7.40;;
3924;SDS011;1977;52.274;10.518;2023-06-10T05:16:25;9.00;;;7.37;;
3924;SDS011;1977;52.274;10.518;2023-06-10T05:18:52;7.53;;;6.10;;
3924;SDS011;1977;52.274;10.518;2023-06-10T05:21:21;7.73;;;6.70;;
3924;SDS011;1977;52.274;10.518;2023-06-10T05:23:47;7.90;;;7.10;;
3924;SDS011;1977;52.274;10.518;2023-06-10T05:26:14;8.13;;;6.63;;
3924;SDS011;1977;52.274;10.518;2023-06-10T05:28:42;8.13;;;7.20;;
3924;SDS011;1977;52.274;10.518;2023-06-10T05:31:09;11.60;;;7.40;;
3924;SDS011;1977;52.274;10.518;2023-06-10T05:33:36;7.07;;;6.20;;
3924;SDS011;1977;52.274;10.518;2023-06-10T05:36:03;10.57;;;7.83;;
3924;SDS011;1977;52.274;10.518;2023-06-10T05:38:31;8.33;;;7.63;;
3924;SDS011;1977;52.274;10.518;2023-06-10T05:40:58;7.53;;;6.50;;
3924;SDS011;1977;52.274;10.518;2023-06-10T05:43:25;8.67;;;7.30;;
3924;SDS011;1977;52.274;10.518;2023-06-10T05:45:52;8.57;;;7.40;;
3924;SDS011;1977;52.274;10.518;2023-06-10T05:48:19;9.80;;;7.00;;
3924;SDS011;1977;52.274;10.518;2023-06-10T05:50:46;7.47;;;6.70;;
3924;SDS011;1977;52.274;10.518;2023-06-10T05:53:13;8.87;;;7.43;;
3924;SDS011;1977;52.274;10.518;2023-06-10T05:55:42;10.33;;;6.73;;
3924;SDS011;1977;52.274;10.518;2023-06-10T05:58:09;10.70;;;7.60;;
3924;SDS011;1977;52.274;10.518;2023-06-10T06:00:37;7.47;;;6.77;;
3924;SDS011;1977;52.274;10.518;2023-06-10T06:03:05;8.27;;;7.43;;
3924;SDS011;1977;52.274;10.518;2023-06-10T06:05:32;8.70;;;7.47;;
3924;SDS011;1977;52.274;10.518;2023-06-10T06:08:00;10.50;;;7.63;;
3924;SDS011;1977;52.274;10.518;2023-06-10T06:10:27;9.27;;;6.60;;
3924;SDS011;1977;52.274;10.518;2023-06-10T06:12:55;8.33;;;6.83;;
3924;SDS011;1977;52.274;10.518;2023-06-10T06:15:22;9.40;;;7.70;;
3924;SDS011;1977;52.274;10.518;2023-06-10T06:17:49;8.67;;;7.40;;
3924;SDS011;1977;52.274;10.518;2023-06-10T06:20:17;10.50;;;7.50;;
3924;SDS011;1977;52.274;10.518;2023-06-10T06:22:44;11.50;;;6.87;;
3924;SDS011;1977;52.274;10.518;2023-06-10T06:25:11;7.60;;;7.00;;
3924;SDS011;1977;52.274;10.518;2023-06-10T06:27:37;7.53;;;6.93;;
3924;SDS011;1977;52.274;10.518;2023-06-10T06:30:06;7.37;;;6.53;;
3924;SDS011;1977;52.274;10.518;2023-06-10T06:32:34;8.10;;;7.33;;
3924;SDS011;1977;52.274;10.518;2023-06-10T06:35:00;9.83;;;7.30;;
3924;SDS011;1977;52.274;10.518;2023-06-10T06:37:27;10.07;;;7.50;;
3924;SDS011;1977;52.274;10.518;2023-06-10T06:39:54;9.43;;;7.17;;
3924;SDS011;1977;52.274;10.518;2023-06-10T06:42:21;8.13;;;7.33;;
3924;SDS011;1977;52.274;10.518;2023-06-10T06:44:48;10.57;;;6.20;;
3924;SDS011;1977;52.274;10.518;2023-06-10T06:47:16;7.80;;;7.10;;
3924;SDS011;1977;52.274;10.518;2023-06-10T06:49:44;7.77;;;7.10;;
3924;SDS011;1977;52.274;10.518;2023-06-10T06:52:11;8.57;;;6.77;;
3924;SDS011;1977;52.274;10.518;2023-06-10T06:54:38;7.53;;;6.83;;
3924;SDS011;1977;52.274;10.518;2023-06-10T06:57:05;8.63;;;7.57;;
3924;SDS011;1977;52.274;10.518;2023-06-10T06:59:33;10.87;;;7.20;;
3924;SDS011;1977;52.274;10.518;2023-06-10T07:02:00;7.40;;;6.70;;
3924;SDS011;1977;52.274;10.518;2023-06-10T07:04:28;7.50;;;6.90;;
3924;SDS011;1977;52.274;10.518;2023-06-10T07:06:55;8.03;;;5.90;;
3924;SDS011;1977;52.274;10.518;2023-06-10T07:09:22;8.73;;;6.77;;
3924;SDS011;1977;52.274;10.518;2023-06-10T07:11:48;8.50;;;6.60;;
3924;SDS011;1977;52.274;10.518;2023-06-10T07:14:15;6.53;;;5.63;;
3924;SDS011;1977;52.274;10.518;2023-06-10T07:16:42;7.67;;;6.63;;
3924;SDS011;1977;52.274;10.518;2023-06-10T07:19:10;7.87;;;6.20;;
3924;SDS011;1977;52.274;10.518;2023-06-10T07:21:38;7.40;;;6.27;;
3924;SDS011;1977;52.274;10.518;2023-06-10T07:24:05;8.57;;;6.13;;
3924;SDS011;1977;52.274;10.518;2023-06-10T07:26:32;7.10;;;5.80;;
3924;SDS011;1977;52.274;10.518;2023-06-10T07:28:59;6.30;;;5.23;;
3924;SDS011;1977;52.274;10.518;2023-06-10T07:31:25;7.00;;;6.23;;
3924;SDS011;1977;52.274;10.518;2023-06-10T07:33:52;7.30;;;6.10;;
3924;SDS011;1977;52.274;10.518;2023-06-10T07:36:19;5.97;;;5.40;;
3924;SDS011;1977;52.274;10.518;2023-06-10T07:38:47;9.47;;;5.80;;
3924;SDS011;1977;52.274;10.518;2023-06-10T07:41:14;7.07;;;5.60;;
3924;SDS011;1977;52.274;10.518;2023-06-10T07:43:43;6.30;;;5.70;;
3924;SDS011;1977;52.274;10.518;2023-06-10T07:46:09;6.87;;;5.80;;
3924;SDS011;1977;52.274;10.518;2023-06-10T07:48:36;7.60;;;6.40;;
3924;SDS011;1977;52.274;10.518;2023-06-10T07:51:03;6.30;;;5.77;;
3924;SDS011;1977;52.274;10.518;2023-06-10T07:53:30;8.27;;;6.07;;
3924;SDS011;1977;52.274;10.518;2023-06-10T07:55:58;6.93;;;6.03;;
3924;SDS011;1977;52.274;10.518;2023-06-10T07:58:25;7.17;;;6.47;;
3924;SDS011;1977;52.274;10.518;2023-06-10T08:00:51;6.63;;;6.13;;
3924;SDS011;1977;52.274;10.518;2023-06-10T08:03:20;9.13;;;5.80;;
3924;SDS011;1977;52.274;10.518;2023-06-10T08:05:46;6.40;;;5.80;;
3924;SDS011;1977;52.274;10.518;2023-06-10T08:08:13;6.70;;;5.70;;
3924;SDS011;1977;52.274;10.518;2023-06-10T08:10:40;6.37;;;5.70;;
3924;SDS011;1977;52.274;10.518;2023-06-10T08:13:08;8.00;;;5.37;;
3924;SDS011;1977;52.274;10.518;2023-06-10T08:15:35;7.20;;;5.47;;
3924;SDS011;1977;52.274;10.518;2023-06-10T08:18:02;6.23;;;5.73;;
3924;SDS011;1977;52.274;10.518;2023-06-10T08:20:29;7.30;;;6.70;;
3924;SDS011;1977;52.274;10.518;2023-06-10T08:22:56;10.07;;;6.30;;
3924;SDS011;1977;52.274;10.518;2023-06-10T08:25:23;5.70;;;4.90;;
3924;SDS011;1977;52.274;10.518;2023-06-10T08:27:49;5.63;;;5.13;;
3924;SDS011;1977;52.274;10.518;2023-06-10T08:30:18;5.67;;;5.27;;
3924;SDS011;1977;52.274;10.518;2023-06-10T08:32:45;8.70;;;5.80;;
3924;SDS011;1977;52.274;10.518;2023-06-10T08:35:12;8.73;;;6.00;;
3924;SDS011;1977;52.274;10.518;2023-06-10T08:37:38;6.57;;;6.10;;
3924;SDS011;1977;52.274;10.518;2023-06-10T08:40:06;5.27;;;4.90;;
3924;SDS011;1977;52.274;10.518;2023-06-10T08:42:36;7.90;;;7.10;;
3924;SDS011;1977;52.274;10.518;2023-06-10T08:45:05;5.80;;;5.40;;
3924;SDS011;1977;52.274;10.518;2023-06-10T08:47:36;6.13;;;5.53;;
3924;SDS011;1977;52.274;10.518;2023-06-10T08:50:07;6.43;;;5.60;;
3924;SDS011;1977;52.274;10.518;2023-06-10T08:52:35;6.00;;;5.40;;
3924;SDS011;1977;52.274;10.518;2023-06-10T08:55:03;5.43;;;4.93;;
3924;SDS011;1977;52.274;10.518;2023-06-10T08:57:36;4.80;;;4.40;;
3924;SDS011;1977;52.274;10.518;2023-06-10T09:00:03;6.73;;;5.90;;
3924;SDS011;1977;52.274;10.518;2023-06-10T09:02:32;5.53;;;4.70;;
3924;SDS011;1977;52.274;10.518;2023-06-10T09:05:02;6.60;;;5.23;;
3924;SDS011;1977;52.274;10.518;2023-06-10T09:07:29;6.03;;;5.63;;
3924;SDS011;1977;52.274;10.518;2023-06-10T09:09:59;5.83;;;5.33;;
3924;SDS011;1977;52.274;10.518;2023-06-10T09:12:29;5.80;;;5.30;;
3924;SDS011;1977;52.274;10.518;2023-06-10T09:14:56;5.40;;;4.90;;
3924;SDS011;1977;52.274;10.518;2023-06-10T09:17:22;6.17;;;5.57;;
3924;SDS011;1977;52.274;10.518;2023-06-10T09:19:49;5.57;;;5.10;;
3924;SDS011;1977;52.274;10.518;2023-06-10T09:22:20;4.87;;;4.47;;
3924;SDS011;1977;52.274;10.518;2023-06-10T09:24:47;4.67;;;4.47;;
3924;SDS011;1977;52.274;10.518;2023-06-10T09:27:14;5.30;;;4.80;;
3924;SDS011;1977;52.274;10.518;2023-06-10T09:29:48;5.60;;;5.10;;
3924;SDS011;1977;52.274;10.518;2023-06-10T09:32:18;5.40;;;4.97;;
3924;SDS011;1977;52.274;10.518;2023-06-10T09:34:46;6.03;;;4.80;;
3924;SDS011;1977;52.274;10.518;2023-06-10T09:37:20;5.50;;;5.10;;
3924;SDS011;1977;52.274;10.518;2023-06-10T09:40:01;6.23;;;5.70;;
3924;SDS011;1977;52.274;10.518;2023-06-10T09:42:31;5.33;;;5.00;;
3924;SDS011;1977;52.274;10.518;2023-06-10T09:45:00;5.33;;;4.97;;
3924;SDS011;1977;52.274;10.518;2023-06-10T09:47:27;5.70;;;5.20;;
3924;SDS011;1977;52.274;10.518;2023-06-10T09:49:54;5.30;;;4.83;;
3924;SDS011;1977;52.274;10.518;2023-06-10T09:52:23;5.70;;;5.27;;
3924;SDS011;1977;52.274;10.518;2023-06-10T09:54:50;5.57;;;5.27;;
3924;SDS011;1977;52.274;10.518;2023-06-10T09:57:18;4.87;;;4.57;;
3924;SDS011;1977;52.274;10.518;2023-06-10T09:59:45;6.17;;;5.67;;
3924;SDS011;1977;52.274;10.518;2023-06-10T10:02:16;4.97;;;4.57;;
3924;SDS011;1977;52.274;10.518;2023-06-10T10:04:47;5.80;;;5.40;;
3924;SDS011;1977;52.274;10.518;2023-06-10T10:07:14;6.13;;;5.63;;
3924;SDS011;1977;52.274;10.518;2023-06-10T10:09:42;6.73;;;6.30;;
3924;SDS011;1977;52.274;10.518;2023-06-10T10:12:09;6.10;;;5.70;;
3924;SDS011;1977;52.274;10.518;2023-06-10T10:14:37;6.10;;;5.70;;
3924;SDS011;1977;52.274;10.518;2023-06-10T10:17:06;6.40;;;5.80;;
3924;SDS011;1977;52.274;10.518;2023-06-10T10:19:36;6.17;;;5.87;;
3924;SDS011;1977;52.274;10.518;2023-06-10T10:22:15;8.07;;;7.47;;
3924;SDS011;1977;52.274;10.518;2023-06-10T10:24:49;8.57;;;7.90;;
3924;SDS011;1977;52.274;10.518;2023-06-10T10:27:18;7.80;;;7.20;;
3924;SDS011;1977;52.274;10.518;2023-06-10T10:29:48;9.27;;;8.20;;
3924;SDS011;1977;52.274;10.518;2023-06-10T10:32:18;8.10;;;7.60;;
3924;SDS011;1977;52.274;10.518;2023-06-10T10:34:49;7.93;;;7.23;;
3924;SDS011;1977;52.274;10.518;2023-06-10T10:37:29;8.90;;;8.20;;
3924;SDS011;1977;52.274;10.518;2023-06-10T10:39:58;8.37;;;7.57;;
3924;SDS011;1977;52.274;10.518;2023-06-10T10:42:26;9.30;;;8.50;;
3924;SDS011;1977;52.274;10.518;2023-06-10T10:44:54;8.90;;;8.13;;
3924;SDS011;1977;52.274;10.518;2023-06-10T10:47:21;8.80;;;8.10;;
3924;SDS011;1977;52.274;10.518;2023-06-10T10:49:51;10.00;;;9.00;;
3924;SDS011;1977;52.274;10.518;2023-06-10T10:52:19;8.57;;;7.97;;
3924;SDS011;1977;52.274;10.518;2023-06-10T10:54:46;9.60;;;8.70;;
3924;SDS011;1977;52.274;10.518;2023-06-10T10:57:15;9.60;;;8.80;;
3924;SDS011;1977;52.274;10.518;2023-06-10T10:59:51;8.77;;;8.17;;
3924;SDS011;1977;52.274;10.518;2023-06-10T11:02:32;9.83;;;8.97;;
3924;SDS011;1977;52.274;10.518;2023-06-10T11:05:00;9.93;;;8.63;;
3924;SDS011;1977;52.274;10.518;2023-06-10T11:07:29;9.33;;;8.63;;
3924;SDS011;1977;52.274;10.518;2023-06-10T11:09:57;9.07;;;8.37;;
3924;SDS011;1977;52.274;10.518;2023-06-10T11:12:28;9.60;;;8.90;;
3924;SDS011;1977;52.274;10.518;2023-06-10T11:15:17;9.40;;;8.60;;
3924;SDS011;1977;52.274;10.518;2023-06-10T11:20:42;11.80;;;10.30;;
3924;SDS011;1977;52.274;10.518;2023-06-10T11:23:37;9.93;;;9.13;;
3924;SDS011;1977;52.274;10.518;2023-06-10T11:26:09;10.30;;;9.60;;
3924;SDS011;1977;52.274;10.518;2023-06-10T11:28:41;11.60;;;10.03;;
3924;SDS011;1977;52.274;10.518;2023-06-10T11:31:27;10.33;;;9.57;;
3924;SDS011;1977;52.274;10.518;2023-06-10T11:33:55;10.17;;;9.07;;
3924;SDS011;1977;52.274;10.518;2023-06-10T11:36:23;10.50;;;9.80;;
3924;SDS011;1977;52.274;10.518;2023-06-10T11:38:53;11.60;;;10.60;;
3924;SDS011;1977;52.274;10.518;2023-06-10T11:41:21;9.13;;;8.23;;
3924;SDS011;1977;52.274;10.518;2023-06-10T11:43:51;10.90;;;10.00;;
3924;SDS011;1977;52.274;10.518;2023-06-10T11:46:18;10.67;;;9.77;;
3924;SDS011;1977;52.274;10.518;2023-06-10T11:48:48;11.03;;;9.97;;
3924;SDS011;1977;52.274;10.518;2023-06-10T11:51:16;10.00;;;9.20;;
3924;SDS011;1977;52.274;10.518;2023-06-10T11:53:43;9.73;;;8.93;;
3924;SDS011;1977;52.274;10.518;2023-06-10T11:56:10;9.70;;;9.00;;
3924;SDS011;1977;52.274;10.518;2023-06-10T11:58:37;10.73;;;9.93;;
3924;SDS011;1977;52.274;10.518;2023-06-10T12:01:11;10.20;;;9.40;;
3924;SDS011;1977;52.274;10.518;2023-06-10T12:03:45;11.77;;;10.73;;
3924;SDS011;1977;52.274;10.518;2023-06-10T12:06:12;11.10;;;10.00;;
3924;SDS011;1977;52.274;10.518;2023-06-10T12:08:41;11.37;;;10.40;;
3924;SDS011;1977;52.274;10.518;2023-06-10T12:11:08;10.73;;;9.93;;
3924;SDS011;1977;52.274;10.518;2023-06-10T12:13:36;10.80;;;9.90;;
3924;SDS011;1977;52.274;10.518;2023-06-10T12:16:06;11.87;;;10.77;;
3924;SDS011;1977;52.274;10.518;2023-06-10T12:18:34;11.83;;;10.63;;
3924;SDS011;1977;52.274;10.518;2023-06-10T12:21:01;10.87;;;9.97;;
3924;SDS011;1977;52.274;10.518;2023-06-10T12:23:29;11.70;;;10.60;;
3924;SDS011;1977;52.274;10.518;2023-06-10T12:25:55;11.40;;;10.43;;
3924;SDS011;1977;52.274;10.518;2023-06-10T12:28:24;13.60;;;10.30;;
3924;SDS011;1977;52.274;10.518;2023-06-10T12:30:51;11.10;;;10.10;;
3924;SDS011;1977;52.274;10.518;2023-06-10T12:33:32;11.40;;;10.40;;
3924;SDS011;1977;52.274;10.518;2023-06-10T12:36:00;11.63;;;10.73;;
3924;SDS011;1977;52.274;10.518;2023-06-10T12:38:27;11.23;;;10.40;;
3924;SDS011;1977;52.274;10.518;2023-06-10T12:40:54;11.00;;;10.20;;
3924;SDS011;1977;52.274;10.518;2023-06-10T12:43:27;10.00;;;9.30;;
3924;SDS011;1977;52.274;10.518;2023-06-10T12:45:54;10.70;;;9.77;;
3924;SDS011;1977;52.274;10.518;2023-06-10T12:48:21;11.30;;;10.40;;
3924;SDS011;1977;52.274;10.518;2023-06-10T12:50:51;11.53;;;10.43;;
3924;SDS011;1977;52.274;10.518;2023-06-10T12:53:20;10.67;;;9.60;;
3924;SDS011;1977;52.274;10.518;2023-06-10T12:55:48;17.83;;;10.00;;
3924;SDS011;1977;52.274;10.518;2023-06-10T12:58:15;12.20;;;9.70;;
3924;SDS011;1977;52.274;10.518;2023-06-10T13:00:42;12.27;;;11.00;;
3924;SDS011;1977;52.274;10.518;2023-06-10T13:03:09;10.73;;;9.97;;
3924;SDS011;1977;52.274;10.518;2023-06-10T13:05:36;11.20;;;10.13;;
3924;SDS011;1977;52.274;10.518;2023-06-10T13:08:03;10.67;;;9.83;;
3924;SDS011;1977;52.274;10.518;2023-06-10T13:10:32;10.90;;;10.00;;
3924;SDS011;1977;52.274;10.518;2023-06-10T13:12:59;9.90;;;9.20;;
3924;SDS011;1977;52.274;10.518;2023-06-10T13:15:26;10.80;;;10.10;;
3924;SDS011;1977;52.274;10.518;2023-06-10T13:17:53;11.53;;;10.70;;
3924;SDS011;1977;52.274;10.518;2023-06-10T13:20:20;10.00;;;9.30;;
3924;SDS011;1977;52.274;10.518;2023-06-10T13:22:47;11.27;;;10.47;;
3924;SDS011;1977;52.274;10.518;2023-06-10T13:25:14;10.90;;;10.00;;
3924;SDS011;1977;52.274;10.518;2023-06-10T13:27:43;12.00;;;10.97;;
3924;SDS011;1977;52.274;10.518;2023-06-10T13:30:10;11.87;;;10.87;;
3924;SDS011;1977;52.274;10.518;2023-06-10T13:32:37;10.23;;;9.43;;
3924;SDS011;1977;52.274;10.518;2023-06-10T13:35:05;10.33;;;9.40;;
3924;SDS011;1977;52.274;10.518;2023-06-10T13:37:32;10.73;;;9.97;;
3924;SDS011;1977;52.274;10.518;2023-06-10T13:39:59;10.97;;;10.10;;
3924;SDS011;1977;52.274;10.518;2023-06-10T13:42:27;10.13;;;9.43;;
3924;SDS011;1977;52.274;10.518;2023-06-10T13:44:55;10.40;;;9.70;;
3924;SDS011;1977;52.274;10.518;2023-06-10T13:47:22;10.50;;;9.57;;
3924;SDS011;1977;52.274;10.518;2023-06-10T13:49:49;11.10;;;10.20;;
3924;SDS011;1977;52.274;10.518;2023-06-10T13:52:16;10.10;;;9.40;;
3924;SDS011;1977;52.274;10.518;2023-06-10T13:54:43;9.60;;;9.00;;
3924;SDS011;1977;52.274;10.518;2023-06-10T13:57:09;10.07;;;9.40;;
3924;SDS011;1977;52.274;10.518;2023-06-10T13:59:36;9.57;;;8.87;;
3924;SDS011;1977;52.274;10.518;2023-06-10T14:02:04;9.73;;;9.03;;
3924;SDS011;1977;52.274;10.518;2023-06-10T14:04:32;11.63;;;10.73;;
3924;SDS011;1977;52.274;10.518;2023-06-10T14:06:58;11.80;;;10.80;;
3924;SDS011;1977;52.274;10.518;2023-06-10T14:09:25;11.80;;;10.90;;
3924;SDS011;1977;52.274;10.518;2023-06-10T14:11:52;11.87;;;11.07;;
3924;SDS011;1977;52.274;10.518;2023-06-10T14:14:19;11.17;;;10.30;;
3924;SDS011;1977;52.274;10.518;2023-06-10T14:16:47;11.67;;;10.70;;
3924;SDS011;1977;52.274;10.518;2023-06-10T14:19:15;10.70;;;9.80;;
3924;SDS011;1977;52.274;10.518;2023-06-10T14:21:42;11.37;;;10.47;;
3924;SDS011;1977;52.274;10.518;2023-06-10T14:24:09;11.63;;;10.73;;
3924;SDS011;1977;52.274;10.518;2023-06-10T14:26:35;10.30;;;9.60;;
3924;SDS011;1977;52.274;10.518;2023-06-10T14:29:02;10.87;;;10.13;;
3924;SDS011;1977;52.274;10.518;2023-06-10T14:31:29;11.80;;;11.00;;
3924;SDS011;1977;52.274;10.518;2023-06-10T14:33:56;11.10;;;10.20;;
3924;SDS011;1977;52.274;10.518;2023-06-10T14:36:24;12.10;;;11.10;;
3924;SDS011;1977;52.274;10.518;2023-06-10T14:38:50;11.17;;;10.37;;
3924;SDS011;1977;52.274;10.518;2023-06-10T14:41:18;12.80;;;10.47;;
3924;SDS011;1977;52.274;10.518;2023-06-10T14:43:47;11.67;;;10.57;;
3924;SDS011;1977;52.274;10.518;2023-06-10T14:46:14;10.80;;;10.10;;
3924;SDS011;1977;52.274;10.518;2023-06-10T14:48:40;11.80;;;10.80;;
3924;SDS011;1977;52.274;10.518;2023-06-10T14:51:07;10.87;;;10.10;;
3924;SDS011;1977;52.274;10.518;2023-06-10T14:53:35;11.70;;;10.50;;
3924;SDS011;1977;52.274;10.518;2023-06-10T14:56:02;10.40;;;9.50;;
3924;SDS011;1977;52.274;10.518;2023-06-10T14:58:29;11.67;;;10.77;;
3924;SDS011;1977;52.274;10.518;2023-06-10T15:00:56;11.73;;;10.83;;
3924;SDS011;1977;52.274;10.518;2023-06-10T15:03:23;10.83;;;10.00;;